createdAt,value
2024-04-12T00:01:50.685Z,2.10
2024-04-12T00:04:22.292Z,2.03
2024-04-12T00:06:51.453Z,2.50
2024-04-12T00:09:22.192Z,2.43
2024-04-12T00:11:50.321Z,1.90
2024-04-12T00:14:18.201Z,2.53
2024-04-12T00:16:45.547Z,2.10
2024-04-12T00:19:19.865Z,2.53
2024-04-12T00:21:50.104Z,2.30
2024-04-12T00:24:18.698Z,2.57
2024-04-12T00:26:49.792Z,2.43
2024-04-12T00:29:32.852Z,1.97
2024-04-12T00:32:04.757Z,2.03
2024-04-12T00:34:39.479Z,1.90
2024-04-12T00:37:10.898Z,2.10
2024-04-12T00:39:39.955Z,2.30
2024-04-12T00:42:11.573Z,2.20
2024-04-12T00:44:43.027Z,2.07
2024-04-12T00:47:12.198Z,2.50
2024-04-12T00:49:41.623Z,2.33
2024-04-12T00:52:08.290Z,1.80
2024-04-12T00:54:37.725Z,2.07
2024-04-12T00:57:04.868Z,2.03
2024-04-12T00:59:32.805Z,2.10
2024-04-12T01:02:00.587Z,2.20
2024-04-12T01:04:27.273Z,2.00
2024-04-12T01:06:54.234Z,1.87
2024-04-12T01:09:22.586Z,2.20
2024-04-12T01:11:51.170Z,1.90
2024-04-12T01:14:18.054Z,2.30
2024-04-12T01:16:44.852Z,2.20
2024-04-12T01:19:13.443Z,2.10
2024-04-12T01:21:40.321Z,1.90
2024-04-12T01:24:08.142Z,1.83
2024-04-12T01:26:35.541Z,2.00
2024-04-12T01:29:03.832Z,2.00
2024-04-12T01:31:30.523Z,2.10
2024-04-12T01:33:57.044Z,2.30
2024-04-12T01:36:24.459Z,2.00
2024-04-12T01:38:55.539Z,2.13
2024-04-12T01:41:26.298Z,2.30
2024-04-12T01:43:53.568Z,3.00
2024-04-12T01:46:28.025Z,2.03
2024-04-12T01:48:59.337Z,1.87
2024-04-12T01:51:26.536Z,2.30
2024-04-12T01:53:58.715Z,2.37
2024-04-12T01:56:25.743Z,2.07
2024-04-12T01:58:52.971Z,2.50
2024-04-12T02:01:20.541Z,2.17
2024-04-12T02:03:49.073Z,2.43
2024-04-12T02:06:18.992Z,2.47
2024-04-12T02:08:45.858Z,2.27
2024-04-12T02:11:13.457Z,2.13
2024-04-12T02:13:41.681Z,2.47
2024-04-12T02:16:12.567Z,2.23
2024-04-12T02:18:42.835Z,2.23
2024-04-12T02:21:11.853Z,2.43
2024-04-12T02:23:39.236Z,2.10
2024-04-12T02:26:09.141Z,2.30
2024-04-12T02:28:37.817Z,2.00
2024-04-12T02:31:10.287Z,2.60
2024-04-12T02:33:37.311Z,2.30
2024-04-12T02:36:13.133Z,2.20
2024-04-12T02:38:41.659Z,1.87
2024-04-12T02:41:14.875Z,2.07
2024-04-12T02:43:56.290Z,1.77
2024-04-12T02:46:26.028Z,2.47
2024-04-12T02:48:53.482Z,1.93
2024-04-12T02:51:23.375Z,2.30
2024-04-12T02:53:52.106Z,2.10
2024-04-12T02:56:21.714Z,2.77
2024-04-12T02:58:53.000Z,2.37
2024-04-12T03:01:21.350Z,2.27
2024-04-12T03:03:50.246Z,2.00
2024-04-12T03:06:25.008Z,2.70
2024-04-12T03:08:53.104Z,2.10
2024-04-12T03:11:26.824Z,2.70
2024-04-12T03:14:05.014Z,2.23
2024-04-12T03:16:32.704Z,2.30
2024-04-12T03:18:59.863Z,2.50
2024-04-12T03:21:27.998Z,2.10
2024-04-12T03:23:56.664Z,2.30
2024-04-12T03:26:23.542Z,2.27
2024-04-12T03:29:00.350Z,1.87
2024-04-12T03:31:28.089Z,2.37
2024-04-12T03:34:01.854Z,2.00
2024-04-12T03:36:54.712Z,2.13
2024-04-12T03:39:23.475Z,2.17
2024-04-12T03:42:06.229Z,2.03
2024-04-12T03:44:36.076Z,2.40
2024-04-12T03:47:09.671Z,2.10
2024-04-12T03:49:42.829Z,2.03
2024-04-12T03:52:16.605Z,2.40
2024-04-12T03:54:44.649Z,2.27
2024-04-12T03:57:11.729Z,2.37
2024-04-12T03:59:44.956Z,2.00
2024-04-12T04:02:13.274Z,2.00
2024-04-12T04:04:46.705Z,2.20
2024-04-12T04:07:19.067Z,2.00
2024-04-12T04:09:47.142Z,2.67
2024-04-12T04:12:16.158Z,2.00
2024-04-12T04:14:53.749Z,2.17
2024-04-12T04:17:31.603Z,2.00
2024-04-12T04:19:59.350Z,2.50
2024-04-12T04:22:28.796Z,2.40
2024-04-12T04:24:56.319Z,2.27
2024-04-12T04:27:24.297Z,2.50
2024-04-12T04:29:57.738Z,2.47
2024-04-12T04:32:27.540Z,2.57
2024-04-12T04:34:56.599Z,2.40
2024-04-12T04:37:32.742Z,2.20
2024-04-12T04:40:01.375Z,2.40
2024-04-12T04:42:28.096Z,2.40
2024-04-12T04:44:54.702Z,2.20
2024-04-12T04:47:24.536Z,2.20
2024-04-12T04:49:51.912Z,2.33
2024-04-12T04:52:18.490Z,2.20
2024-04-12T04:54:45.198Z,1.97
2024-04-12T04:57:11.860Z,2.63
2024-04-12T04:59:38.433Z,2.40
2024-04-12T05:02:05.214Z,2.50
2024-04-12T05:04:34.643Z,2.23
2024-04-12T05:07:01.200Z,2.20
2024-04-12T05:09:34.278Z,2.70
2024-04-12T05:12:01.928Z,2.27
2024-04-12T05:14:38.191Z,2.20
2024-04-12T05:17:06.252Z,2.50
2024-04-12T05:19:44.993Z,2.13
2024-04-12T05:22:12.466Z,2.27
2024-04-12T05:24:41.517Z,2.73
2024-04-12T05:27:09.339Z,2.47
2024-04-12T05:29:36.046Z,2.30
2024-04-12T05:32:03.244Z,2.90
2024-04-12T05:34:30.173Z,2.77
2024-04-12T05:37:04.202Z,2.67
2024-04-12T05:39:36.886Z,2.77
2024-04-12T05:42:06.576Z,2.87
2024-04-12T05:44:34.966Z,2.70
2024-04-12T05:47:08.308Z,3.07
2024-04-12T05:49:35.019Z,3.00
2024-04-12T05:52:02.616Z,3.33
2024-04-12T05:54:45.764Z,2.80
2024-04-12T05:57:12.758Z,3.37
2024-04-12T05:59:43.385Z,3.70
2024-04-12T06:02:11.625Z,3.10
2024-04-12T06:04:38.278Z,3.20
2024-04-12T06:07:14.530Z,2.83
2024-04-12T06:09:41.830Z,2.47
2024-04-12T06:12:09.116Z,3.13
2024-04-12T06:14:39.904Z,3.07
2024-04-12T06:17:10.638Z,3.53
2024-04-12T06:19:39.275Z,2.97
2024-04-12T06:22:14.000Z,3.03
2024-04-12T06:24:50.391Z,3.00
2024-04-12T06:27:18.595Z,2.80
2024-04-12T06:29:48.140Z,3.03
2024-04-12T06:32:17.863Z,3.10
2024-04-12T06:34:44.617Z,3.10
2024-04-12T06:37:11.435Z,3.90
2024-04-12T06:39:38.397Z,3.27
2024-04-12T06:42:06.538Z,4.10
2024-04-12T06:44:33.509Z,3.50
2024-04-12T06:47:00.432Z,3.20
2024-04-12T06:49:30.191Z,3.40
2024-04-12T06:52:32.822Z,3.27
2024-04-12T06:55:02.458Z,3.73
2024-04-12T06:57:29.176Z,3.93
2024-04-12T06:59:56.461Z,3.10
2024-04-12T07:02:28.149Z,3.63
2024-04-12T07:04:56.283Z,3.70
2024-04-12T07:07:26.315Z,4.50
2024-04-12T07:09:59.921Z,4.07
2024-04-12T07:12:28.868Z,3.60
2024-04-12T07:14:56.239Z,3.90
2024-04-12T07:17:24.502Z,3.67
2024-04-12T07:19:52.262Z,3.63
2024-04-12T07:22:23.208Z,3.77
2024-04-12T07:24:54.140Z,4.00
2024-04-12T07:27:29.791Z,3.50
2024-04-12T07:29:59.325Z,4.60
2024-04-12T07:32:27.096Z,4.27
2024-04-12T07:34:54.113Z,3.90
2024-04-12T07:37:33.361Z,3.60
2024-04-12T07:40:19.137Z,3.83
2024-04-12T07:42:50.150Z,3.60
2024-04-12T07:45:18.778Z,3.53
2024-04-12T07:47:54.136Z,4.23
2024-04-12T07:50:22.946Z,4.20
2024-04-12T07:52:52.554Z,3.97
2024-04-12T07:55:25.209Z,3.83
2024-04-12T07:57:54.996Z,4.00
2024-04-12T08:00:36.348Z,3.43
2024-04-12T08:03:07.960Z,3.90
2024-04-12T08:05:56.317Z,4.00
2024-04-12T08:08:29.198Z,4.00
2024-04-12T08:11:12.159Z,4.07
2024-04-12T08:13:45.784Z,3.77
2024-04-12T08:16:24.619Z,4.13
2024-04-12T08:18:56.513Z,3.77
2024-04-12T08:21:28.819Z,4.07
2024-04-12T08:23:57.559Z,3.60
2024-04-12T08:26:28.989Z,3.67
2024-04-12T08:28:56.192Z,3.83
2024-04-12T08:31:25.239Z,3.70
2024-04-12T08:33:54.249Z,4.33
2024-04-12T08:36:20.907Z,3.77
2024-04-12T08:38:58.811Z,3.50
2024-04-12T08:41:25.839Z,3.53
2024-04-12T08:43:59.919Z,3.13
2024-04-12T08:46:34.589Z,3.37
2024-04-12T08:49:06.451Z,4.10
2024-04-12T08:51:35.692Z,4.13
2024-04-12T08:54:06.439Z,4.10
2024-04-12T08:56:33.512Z,4.10
2024-04-12T08:59:09.285Z,3.77
2024-04-12T09:01:41.826Z,3.90
2024-04-12T09:04:16.764Z,3.53
2024-04-12T09:06:43.715Z,4.60
2024-04-12T09:09:15.180Z,4.13
2024-04-12T09:11:45.819Z,4.87
2024-04-12T09:14:21.232Z,4.60
2024-04-12T09:16:49.960Z,4.00
2024-04-12T09:19:17.090Z,4.80
2024-04-12T09:21:52.469Z,4.70
2024-04-12T09:24:23.279Z,4.83
2024-04-12T09:26:57.440Z,4.80
2024-04-12T09:29:28.939Z,4.83
2024-04-12T09:32:17.750Z,5.70
2024-04-12T09:34:48.560Z,5.63
2024-04-12T09:37:27.795Z,5.60
2024-04-12T09:40:01.008Z,4.83
2024-04-12T09:42:46.946Z,5.47
2024-04-12T09:45:23.451Z,5.23
2024-04-12T09:48:11.331Z,4.57
2024-04-12T09:50:58.867Z,3.93
2024-04-12T09:53:44.564Z,4.70
2024-04-12T09:56:34.465Z,5.10
2024-04-12T09:59:33.965Z,4.87
2024-04-12T10:02:19.949Z,4.07
2024-04-12T10:05:08.201Z,3.83
2024-04-12T10:07:54.870Z,3.80
2024-04-12T10:10:41.956Z,4.23
2024-04-12T10:13:28.859Z,3.70
2024-04-12T10:16:14.316Z,4.13
2024-04-12T10:19:00.118Z,4.63
2024-04-12T10:21:45.165Z,4.80
2024-04-12T10:24:33.189Z,3.73
2024-04-12T10:27:18.535Z,4.63
2024-04-12T10:30:05.069Z,3.73
2024-04-12T10:32:54.364Z,4.03
2024-04-12T10:35:39.311Z,4.43
2024-04-12T10:38:11.278Z,4.67
2024-04-12T10:40:46.693Z,4.87
2024-04-12T10:43:15.228Z,5.20
2024-04-12T10:45:49.917Z,4.60
2024-04-12T10:48:20.189Z,4.50
2024-04-12T10:50:49.690Z,4.60
2024-04-12T10:53:18.608Z,4.33
2024-04-12T10:55:46.142Z,4.90
2024-04-12T10:58:15.422Z,4.27
2024-04-12T11:00:49.130Z,4.23
2024-04-12T11:03:22.268Z,4.77
2024-04-12T11:05:53.251Z,4.47
2024-04-12T11:08:26.312Z,5.07
2024-04-12T11:11:02.306Z,4.70
2024-04-12T11:13:36.370Z,4.73
2024-04-12T11:16:22.379Z,4.03
2024-04-12T11:19:11.513Z,2.90
2024-04-12T11:21:58.147Z,4.73
2024-04-12T11:24:43.423Z,5.27
2024-04-12T11:27:29.197Z,4.60
2024-04-12T11:30:14.447Z,5.10
2024-04-12T11:32:44.298Z,4.90
2024-04-12T11:35:17.033Z,4.63
2024-04-12T11:37:46.890Z,4.20
2024-04-12T11:40:18.065Z,5.30
2024-04-12T11:42:49.980Z,5.10
2024-04-12T11:45:18.802Z,4.30
2024-04-12T11:47:45.865Z,4.57
2024-04-12T11:50:12.732Z,4.63
2024-04-12T11:52:39.652Z,4.87
2024-04-12T11:55:07.945Z,5.60
2024-04-12T11:57:38.534Z,5.43
2024-04-12T12:00:10.852Z,4.50
2024-04-12T12:02:44.852Z,5.33
2024-04-12T12:05:19.077Z,4.80
2024-04-12T12:07:46.658Z,4.90
2024-04-12T12:10:14.512Z,5.60
2024-04-12T12:12:43.539Z,4.93
2024-04-12T12:15:10.802Z,4.77
2024-04-12T12:17:37.919Z,4.43
2024-04-12T12:20:05.873Z,4.73
2024-04-12T12:22:32.719Z,4.53
2024-04-12T12:25:02.068Z,5.97
2024-04-12T12:27:30.699Z,4.10
2024-04-12T12:29:57.341Z,4.57
2024-04-12T12:32:27.766Z,5.43
2024-04-12T12:34:54.712Z,4.60
2024-04-12T12:37:21.551Z,4.53
2024-04-12T12:39:49.304Z,4.27
2024-04-12T12:42:17.552Z,5.10
2024-04-12T12:44:44.600Z,4.70
2024-04-12T12:47:14.070Z,4.93
2024-04-12T12:49:51.436Z,4.30
2024-04-12T12:52:18.991Z,5.50
2024-04-12T12:54:48.926Z,5.07
2024-04-12T12:57:16.357Z,4.33
2024-04-12T12:59:45.387Z,4.10
2024-04-12T13:02:15.759Z,5.47
2024-04-12T13:04:49.484Z,5.33
2024-04-12T13:07:18.761Z,5.80
2024-04-12T13:09:45.558Z,4.57
2024-04-12T13:12:12.320Z,5.10
2024-04-12T13:14:41.093Z,5.37
2024-04-12T13:17:14.566Z,4.90
2024-04-12T13:19:42.981Z,5.00
2024-04-12T13:22:13.175Z,5.33
2024-04-12T13:24:40.282Z,5.07
2024-04-12T13:27:08.720Z,4.07
2024-04-12T13:29:37.960Z,4.10
2024-04-12T13:32:10.316Z,3.77
2024-04-12T13:34:38.662Z,4.67
2024-04-12T13:37:07.588Z,3.60
2024-04-12T13:39:36.779Z,3.10
2024-04-12T13:42:04.893Z,2.83
2024-04-12T13:44:50.341Z,3.57
2024-04-12T13:47:35.926Z,3.13
2024-04-12T13:50:21.128Z,3.27
2024-04-12T13:52:50.135Z,3.90
2024-04-12T13:55:16.905Z,2.70
2024-04-12T13:57:44.545Z,2.60
2024-04-12T14:00:14.200Z,2.90
2024-04-12T14:02:41.680Z,2.83
2024-04-12T14:05:18.343Z,2.53
2024-04-12T14:07:51.143Z,2.53
2024-04-12T14:10:22.140Z,2.67
2024-04-12T14:12:49.821Z,3.07
2024-04-12T14:15:20.771Z,2.50
2024-04-12T14:17:53.057Z,2.50
2024-04-12T14:20:24.741Z,2.20
2024-04-12T14:22:51.306Z,2.60
2024-04-12T14:25:17.875Z,2.10
2024-04-12T14:27:48.006Z,2.30
2024-04-12T14:30:17.267Z,2.73
2024-04-12T14:32:53.092Z,2.17
2024-04-12T14:35:21.634Z,1.70
2024-04-12T14:37:48.810Z,1.80
2024-04-12T14:40:22.433Z,2.00
2024-04-12T14:42:50.261Z,2.00
2024-04-12T14:45:21.849Z,2.10
2024-04-12T14:47:55.638Z,1.77
2024-04-12T14:50:28.956Z,1.80
2024-04-12T14:52:55.611Z,1.53
2024-04-12T14:55:22.198Z,1.70
2024-04-12T14:57:51.279Z,1.80
2024-04-12T15:00:22.727Z,1.60
2024-04-12T15:02:50.001Z,1.80
2024-04-12T15:05:34.938Z,1.23
2024-04-12T15:08:20.319Z,1.83
2024-04-12T15:11:06.580Z,1.90
2024-04-12T15:13:52.170Z,1.50
2024-04-12T15:16:37.440Z,1.43
2024-04-12T15:19:22.498Z,1.77
2024-04-12T15:22:07.768Z,1.70
2024-04-12T15:24:52.854Z,1.90
2024-04-12T15:27:38.525Z,1.70
2024-04-12T15:30:24.688Z,1.80
2024-04-12T15:33:10.118Z,1.63
2024-04-12T15:35:55.667Z,1.73
2024-04-12T15:38:40.928Z,2.43
2024-04-12T15:41:26.252Z,1.95
2024-04-12T15:44:11.116Z,2.10
2024-04-12T15:46:56.549Z,1.73
2024-04-12T15:49:25.570Z,1.87
2024-04-12T15:51:55.302Z,2.00
2024-04-12T15:54:23.229Z,2.23
2024-04-12T15:57:09.216Z,2.03
2024-04-12T15:59:54.979Z,2.10
2024-04-12T16:02:40.299Z,1.70
2024-04-12T16:05:25.627Z,2.00
2024-04-12T16:08:10.593Z,2.13
2024-04-12T16:10:50.697Z,1.80
2024-04-12T16:13:22.426Z,2.33
2024-04-12T16:15:49.583Z,1.90
2024-04-12T16:18:16.719Z,1.70
2024-04-12T16:20:43.466Z,1.90
2024-04-12T16:23:17.414Z,1.43
2024-04-12T16:25:57.278Z,1.30
2024-04-12T16:28:29.295Z,1.60
2024-04-12T16:30:58.891Z,1.73
2024-04-12T16:33:27.230Z,1.97
2024-04-12T16:35:53.903Z,1.40
2024-04-12T16:38:20.925Z,1.87
2024-04-12T16:40:47.530Z,1.63
2024-04-12T16:43:14.294Z,1.47
2024-04-12T16:45:41.103Z,1.67
2024-04-12T16:48:08.244Z,1.60
2024-04-12T16:50:35.523Z,2.10
2024-04-12T16:53:02.497Z,1.30
2024-04-12T16:55:29.516Z,1.40
2024-04-12T16:57:57.275Z,1.53
2024-04-12T17:00:24.178Z,1.60
2024-04-12T17:02:51.115Z,1.60
2024-04-12T17:05:21.230Z,1.53
2024-04-12T17:07:49.417Z,1.50
2024-04-12T17:10:20.098Z,1.53
2024-04-12T17:12:47.245Z,1.13
2024-04-12T17:15:14.010Z,1.40
2024-04-12T17:17:40.705Z,1.57
2024-04-12T17:20:07.987Z,1.30
2024-04-12T17:22:34.936Z,1.40
2024-04-12T17:25:01.489Z,1.90
2024-04-12T17:27:28.105Z,1.43
2024-04-12T17:29:54.673Z,1.53
2024-04-12T17:32:21.998Z,1.43
2024-04-12T17:34:48.698Z,1.50
2024-04-12T17:37:17.730Z,1.17
2024-04-12T17:39:46.114Z,1.30
2024-04-12T17:42:12.738Z,0.90
2024-04-12T17:44:41.607Z,1.17
2024-04-12T17:47:08.180Z,1.33
2024-04-12T17:49:34.808Z,1.77
2024-04-12T17:52:01.602Z,3.27
2024-04-12T17:54:28.316Z,2.17
2024-04-12T17:56:55.050Z,1.57
2024-04-12T17:59:21.689Z,1.27
2024-04-12T18:01:49.671Z,1.60
2024-04-12T18:04:17.124Z,1.40
2024-04-12T18:06:46.422Z,1.70
2024-04-12T18:09:15.885Z,1.53
2024-04-12T18:11:43.099Z,1.37
2024-04-12T18:14:12.390Z,1.73
2024-04-12T18:16:42.490Z,1.20
2024-04-12T18:19:09.313Z,1.43
2024-04-12T18:21:35.949Z,1.70
2024-04-12T18:24:02.862Z,1.70
2024-04-12T18:26:29.534Z,1.30
2024-04-12T18:28:56.309Z,1.70
2024-04-12T18:31:23.500Z,2.00
2024-04-12T18:33:50.397Z,1.77
2024-04-12T18:36:25.156Z,1.60
2024-04-12T18:39:11.755Z,1.77
2024-04-12T18:41:59.390Z,1.67
2024-04-12T18:44:46.162Z,2.03
2024-04-12T18:47:12.730Z,2.00
2024-04-12T18:49:39.291Z,1.97
2024-04-12T18:52:05.984Z,2.03
2024-04-12T18:54:33.513Z,2.00
2024-04-12T18:57:05.348Z,2.13
2024-04-12T18:59:32.027Z,2.00
2024-04-12T19:01:58.643Z,1.97
2024-04-12T19:04:25.525Z,2.10
2024-04-12T19:06:52.074Z,2.10
2024-04-12T19:09:18.758Z,2.20
2024-04-12T19:11:47.236Z,2.57
2024-04-12T19:14:14.355Z,2.40
2024-04-12T19:16:41.865Z,3.23
2024-04-12T19:19:09.815Z,2.43
2024-04-12T19:21:36.683Z,2.70
2024-04-12T19:24:03.550Z,2.60
2024-04-12T19:26:30.318Z,2.67
2024-04-12T19:28:58.196Z,3.00
2024-04-12T19:31:24.894Z,4.00
2024-04-12T19:33:52.626Z,23.83
2024-04-12T19:36:19.314Z,28.40
2024-04-12T19:38:45.884Z,22.90
2024-04-12T19:41:12.879Z,14.63
2024-04-12T19:43:39.433Z,12.53
2024-04-12T19:46:06.338Z,7.80
2024-04-12T19:48:33.142Z,8.70
2024-04-12T19:51:03.741Z,10.83
2024-04-12T19:53:30.563Z,24.43
2024-04-12T19:55:58.397Z,32.63
2024-04-12T19:58:26.036Z,30.20
2024-04-12T20:00:56.224Z,11.73
2024-04-12T20:03:25.322Z,5.80
2024-04-12T20:05:54.082Z,5.50
2024-04-12T20:08:21.987Z,3.80
2024-04-12T20:11:05.219Z,3.80
2024-04-12T20:13:33.479Z,4.17
2024-04-12T20:16:03.176Z,3.97
2024-04-12T20:18:31.923Z,3.80
2024-04-12T20:21:00.268Z,3.43
2024-04-12T20:23:28.190Z,4.27
2024-04-12T20:26:00.091Z,3.40
2024-04-12T20:28:28.741Z,3.77
2024-04-12T20:31:16.190Z,4.20
2024-04-12T20:34:02.356Z,3.90
2024-04-12T20:36:44.245Z,3.80
2024-04-12T20:39:18.992Z,3.70
2024-04-12T20:41:48.353Z,3.53
2024-04-12T20:44:19.901Z,4.00
2024-04-12T20:46:47.968Z,3.90
2024-04-12T20:49:15.888Z,3.70
2024-04-12T20:51:43.980Z,3.77
2024-04-12T20:54:10.936Z,3.70
2024-04-12T20:56:37.706Z,3.90
2024-04-12T20:59:04.945Z,3.90
2024-04-12T21:01:51.942Z,3.77
2024-04-12T21:04:19.886Z,3.70
2024-04-12T21:06:48.377Z,3.73
2024-04-12T21:09:15.502Z,4.00
2024-04-12T21:11:42.307Z,3.50
2024-04-12T21:14:09.475Z,3.30
2024-04-12T21:16:36.988Z,3.77
2024-04-12T21:19:06.520Z,3.90
2024-04-12T21:21:33.275Z,3.97
2024-04-12T21:24:03.204Z,3.57
2024-04-12T21:26:30.544Z,3.87
2024-04-12T21:28:57.322Z,3.57
2024-04-12T21:31:24.406Z,3.63
2024-04-12T21:33:51.403Z,3.50
2024-04-12T21:36:21.625Z,3.37
2024-04-12T21:38:48.921Z,3.20
2024-04-12T21:41:21.154Z,3.57
2024-04-12T21:43:54.229Z,3.47
2024-04-12T21:46:22.733Z,3.30
2024-04-12T21:48:51.526Z,3.73
2024-04-12T21:51:24.574Z,3.70
2024-04-12T21:53:51.509Z,3.80
2024-04-12T21:56:22.391Z,3.80
2024-04-12T21:58:52.723Z,3.33
2024-04-12T22:01:20.795Z,3.63
2024-04-12T22:03:47.925Z,3.37
2024-04-12T22:06:15.610Z,3.33
2024-04-12T22:08:42.499Z,3.63
2024-04-12T22:11:09.399Z,3.67
2024-04-12T22:13:37.305Z,4.30
2024-04-12T22:16:05.877Z,4.27
2024-04-12T22:18:34.698Z,3.63
2024-04-12T22:21:07.703Z,3.67
2024-04-12T22:23:39.379Z,3.83
2024-04-12T22:26:15.096Z,3.50
2024-04-12T22:28:43.715Z,3.93
2024-04-12T22:31:12.268Z,3.40
2024-04-12T22:33:38.890Z,3.70
2024-04-12T22:36:10.657Z,4.00
2024-04-12T22:38:37.541Z,3.60
2024-04-12T22:41:04.397Z,3.80
2024-04-12T22:43:30.992Z,3.27
2024-04-12T22:45:57.617Z,3.30
2024-04-12T22:48:24.971Z,3.30
2024-04-12T22:50:52.693Z,3.50
2024-04-12T22:53:22.469Z,3.67
2024-04-12T22:55:50.285Z,3.40
2024-04-12T22:58:16.937Z,3.50
2024-04-12T23:00:43.685Z,3.73
2024-04-12T23:03:10.505Z,2.83
2024-04-12T23:05:37.246Z,3.30
2024-04-12T23:08:04.000Z,3.33
2024-04-12T23:10:30.827Z,3.47
2024-04-12T23:12:57.660Z,3.00
2024-04-12T23:15:24.944Z,3.20
2024-04-12T23:17:52.321Z,3.30
2024-04-12T23:20:19.519Z,3.80
2024-04-12T23:22:46.165Z,3.10
2024-04-12T23:25:12.725Z,3.60
2024-04-12T23:27:39.412Z,3.60
2024-04-12T23:30:06.765Z,3.50
2024-04-12T23:32:33.573Z,3.60
2024-04-12T23:35:01.099Z,3.20
2024-04-12T23:37:27.662Z,3.63
2024-04-12T23:39:54.420Z,3.60
2024-04-12T23:42:20.982Z,3.73
2024-04-12T23:44:47.748Z,3.57
2024-04-12T23:47:14.414Z,3.53
2024-04-12T23:49:41.081Z,3.40
2024-04-12T23:52:07.677Z,3.60
2024-04-12T23:54:35.254Z,3.20
2024-04-12T23:57:01.923Z,3.47
2024-04-12T23:59:28.517Z,3.50
